createdAt,value
2023-05-14T00:00:50.761Z,6.43
2023-05-14T00:03:52.950Z,6.20
2023-05-14T00:06:55.071Z,6.53
2023-05-14T00:09:57.995Z,6.47
2023-05-14T00:13:00.171Z,6.10
2023-05-14T00:16:02.408Z,6.83
2023-05-14T00:19:04.514Z,6.30
2023-05-14T00:22:06.598Z,6.37
2023-05-14T00:25:08.998Z,6.63
2023-05-14T00:28:11.062Z,6.80
2023-05-14T00:31:13.165Z,6.47
2023-05-14T00:34:15.304Z,6.70
2023-05-14T00:37:17.399Z,6.77
2023-05-14T00:40:20.417Z,7.13
2023-05-14T00:43:22.828Z,6.80
2023-05-14T00:46:24.905Z,6.47
2023-05-14T00:49:27.376Z,6.53
2023-05-14T00:52:29.518Z,7.03
2023-05-14T00:55:31.665Z,7.10
2023-05-14T00:58:33.792Z,6.73
2023-05-14T01:01:35.893Z,7.13
2023-05-14T01:04:38.927Z,5.93
2023-05-14T01:07:55.895Z,6.73
2023-05-14T01:11:00.282Z,7.50
2023-05-14T01:14:23.945Z,6.40
2023-05-14T01:17:29.384Z,6.50
2023-05-14T01:20:31.545Z,6.47
2023-05-14T01:23:33.786Z,5.80
2023-05-14T01:26:36.371Z,6.10
2023-05-14T01:29:41.227Z,6.97
2023-05-14T01:32:45.450Z,6.30
2023-05-14T01:35:47.919Z,6.60
2023-05-14T01:38:51.157Z,6.90
2023-05-14T01:41:53.986Z,7.17
2023-05-14T01:44:56.450Z,6.70
2023-05-14T01:47:58.761Z,5.93
2023-05-14T01:51:02.213Z,8.90
2023-05-14T01:54:04.475Z,6.17
2023-05-14T01:57:06.559Z,6.63
2023-05-14T02:00:09.347Z,6.30
2023-05-14T02:03:11.485Z,6.37
2023-05-14T02:06:13.638Z,8.67
2023-05-14T02:09:16.021Z,7.40
2023-05-14T02:12:18.084Z,7.60
2023-05-14T02:15:20.223Z,5.97
2023-05-14T02:18:22.400Z,6.90
2023-05-14T02:21:24.868Z,6.60
2023-05-14T02:24:27.032Z,8.60
2023-05-14T02:27:29.180Z,8.33
2023-05-14T02:30:31.499Z,8.10
2023-05-14T02:33:34.066Z,6.73
2023-05-14T02:36:36.420Z,7.13
2023-05-14T02:39:38.497Z,7.47
2023-05-14T02:42:40.828Z,7.30
2023-05-14T02:45:43.073Z,7.40
2023-05-14T02:48:45.212Z,7.03
2023-05-14T02:51:47.260Z,7.20
2023-05-14T02:54:49.611Z,7.40
2023-05-14T02:57:53.168Z,7.43
2023-05-14T03:00:55.379Z,15.47
2023-05-14T03:03:57.870Z,10.73
2023-05-14T03:06:59.940Z,7.93
2023-05-14T03:10:02.075Z,7.00
2023-05-14T03:13:04.469Z,7.40
2023-05-14T03:16:06.676Z,6.80
2023-05-14T03:19:09.865Z,6.60
2023-05-14T03:22:12.188Z,7.00
2023-05-14T03:25:14.353Z,6.70
2023-05-14T03:28:16.474Z,6.53
2023-05-14T03:31:18.676Z,6.57
2023-05-14T03:34:21.053Z,6.40
2023-05-14T03:37:23.131Z,5.53
2023-05-14T03:40:25.612Z,6.60
2023-05-14T03:43:27.813Z,5.97
2023-05-14T03:46:29.929Z,6.40
2023-05-14T03:49:32.024Z,6.17
2023-05-14T03:52:34.110Z,6.67
2023-05-14T03:55:36.682Z,5.90
2023-05-14T03:58:38.804Z,5.87
2023-05-14T04:01:40.889Z,5.87
2023-05-14T04:04:43.015Z,5.97
2023-05-14T04:07:46.122Z,6.40
2023-05-14T04:10:48.304Z,5.63
2023-05-14T04:13:50.477Z,6.20
2023-05-14T04:16:52.537Z,5.77
2023-05-14T04:19:54.615Z,6.33
2023-05-14T04:22:56.777Z,5.83
2023-05-14T04:25:59.225Z,5.40
2023-05-14T04:29:03.141Z,5.57
2023-05-14T04:32:05.647Z,5.80
2023-05-14T04:35:09.921Z,5.67
2023-05-14T04:38:14.067Z,5.57
2023-05-14T04:41:16.207Z,5.93
2023-05-14T04:44:18.336Z,5.33
2023-05-14T04:47:21.117Z,5.60
2023-05-14T04:50:23.425Z,5.80
2023-05-14T04:53:25.647Z,5.90
2023-05-14T04:56:27.813Z,5.40
2023-05-14T04:59:30.410Z,5.57
2023-05-14T05:02:34.660Z,5.87
2023-05-14T05:05:36.840Z,5.17
2023-05-14T05:08:38.956Z,5.50
2023-05-14T05:11:41.091Z,5.93
2023-05-14T05:14:43.167Z,5.07
2023-05-14T05:17:45.368Z,5.30
2023-05-14T05:20:47.735Z,5.03
2023-05-14T05:23:49.897Z,5.37
2023-05-14T05:26:53.886Z,4.87
2023-05-14T05:29:55.975Z,5.23
2023-05-14T05:32:58.508Z,5.80
2023-05-14T05:36:00.808Z,5.67
2023-05-14T05:39:02.964Z,5.50
2023-05-14T05:42:06.456Z,5.10
2023-05-14T05:45:09.102Z,5.33
2023-05-14T05:48:11.204Z,4.77
2023-05-14T05:51:13.283Z,5.40
2023-05-14T05:54:15.356Z,5.13
2023-05-14T05:57:17.460Z,5.63
2023-05-14T06:00:20.026Z,5.57
2023-05-14T06:03:22.166Z,5.47
2023-05-14T06:06:24.399Z,5.57
2023-05-14T06:09:26.503Z,5.00
2023-05-14T06:12:28.561Z,4.90
2023-05-14T06:15:30.758Z,5.07
2023-05-14T06:18:32.929Z,5.70
2023-05-14T06:22:03.117Z,5.20
2023-05-14T06:25:05.609Z,5.20
2023-05-14T06:28:07.738Z,4.87
2023-05-14T06:31:09.831Z,4.87
2023-05-14T06:34:14.082Z,4.90
2023-05-14T06:37:16.160Z,5.00
2023-05-14T06:40:19.192Z,5.10
2023-05-14T06:43:21.329Z,5.40
2023-05-14T06:46:23.459Z,5.40
2023-05-14T06:49:27.695Z,6.07
2023-05-14T06:52:29.789Z,5.87
2023-05-14T06:55:31.906Z,5.37
2023-05-14T06:58:34.010Z,5.93
2023-05-14T07:01:36.094Z,5.17
2023-05-14T07:04:38.285Z,5.77
2023-05-14T07:07:40.531Z,6.50
2023-05-14T07:10:42.694Z,6.47
2023-05-14T07:13:52.936Z,6.90
2023-05-14T07:16:55.055Z,7.53
2023-05-14T07:19:57.248Z,6.50
2023-05-14T07:22:59.375Z,6.80
2023-05-14T07:26:01.461Z,6.93
2023-05-14T07:29:03.535Z,6.10
2023-05-14T07:32:05.718Z,6.73
2023-05-14T07:35:07.963Z,6.80
2023-05-14T07:38:10.081Z,7.00
2023-05-14T07:41:12.265Z,7.10
2023-05-14T07:44:14.576Z,7.47
2023-05-14T07:47:16.727Z,6.87
2023-05-14T07:50:19.225Z,6.70
2023-05-14T07:53:21.978Z,6.80
2023-05-14T07:56:24.091Z,6.90
2023-05-14T07:59:26.216Z,6.77
2023-05-14T08:02:28.578Z,7.27
2023-05-14T08:05:32.424Z,6.87
2023-05-14T08:08:34.469Z,6.73
2023-05-14T08:11:36.625Z,6.20
2023-05-14T08:18:36.574Z,7.00
2023-05-14T08:21:38.725Z,6.83
2023-05-14T08:24:42.737Z,6.53
2023-05-14T08:27:44.808Z,6.30
2023-05-14T08:30:47.528Z,6.70
2023-05-14T08:33:49.670Z,6.10
2023-05-14T08:36:51.778Z,5.90
2023-05-14T08:39:53.948Z,5.60
2023-05-14T08:42:57.454Z,5.37
2023-05-14T08:46:01.982Z,6.20
2023-05-14T08:49:12.342Z,5.80
2023-05-14T08:52:14.650Z,5.50
2023-05-14T08:55:16.777Z,5.23
2023-05-14T08:58:18.852Z,5.10
2023-05-14T09:01:21.403Z,4.97
2023-05-14T09:04:24.829Z,5.30
2023-05-14T09:07:26.980Z,4.70
2023-05-14T09:10:29.132Z,4.83
2023-05-14T09:13:31.402Z,5.17
2023-05-14T09:16:33.700Z,4.77
2023-05-14T09:19:35.827Z,5.40
2023-05-14T09:22:39.145Z,4.27
2023-05-14T09:25:41.709Z,4.40
2023-05-14T09:28:44.236Z,4.27
2023-05-14T09:31:46.667Z,4.60
2023-05-14T09:34:48.750Z,4.27
2023-05-14T09:37:51.803Z,4.13
2023-05-14T09:40:53.852Z,4.20
2023-05-14T09:43:57.241Z,4.70
2023-05-14T09:46:59.476Z,4.10
2023-05-14T09:50:01.615Z,4.20
2023-05-14T09:53:03.732Z,4.20
2023-05-14T09:56:05.971Z,3.70
2023-05-14T09:59:08.048Z,4.17
2023-05-14T10:02:16.824Z,4.03
2023-05-14T10:05:19.133Z,4.30
2023-05-14T10:08:28.459Z,4.17
2023-05-14T10:11:38.373Z,4.10
2023-05-14T10:14:41.742Z,3.70
2023-05-14T10:17:46.244Z,3.83
2023-05-14T10:21:01.410Z,4.10
2023-05-14T10:24:07.464Z,3.67
2023-05-14T10:27:10.418Z,3.87
2023-05-14T10:30:22.941Z,4.00
2023-05-14T10:33:25.279Z,4.17
2023-05-14T10:36:27.356Z,4.30
2023-05-14T10:39:42.527Z,4.30
2023-05-14T10:42:44.793Z,4.00
2023-05-14T10:45:46.924Z,3.97
2023-05-14T10:48:50.340Z,3.90
2023-05-14T10:51:53.631Z,3.97
2023-05-14T10:55:02.895Z,3.70
2023-05-14T10:58:05.947Z,4.67
2023-05-14T11:01:08.738Z,4.70
2023-05-14T11:04:19.258Z,4.80
2023-05-14T11:07:25.343Z,4.90
2023-05-14T11:10:30.081Z,4.50
2023-05-14T11:13:34.416Z,4.90
2023-05-14T11:16:37.730Z,4.27
2023-05-14T11:19:39.819Z,4.90
2023-05-14T11:22:43.050Z,4.93
2023-05-14T11:25:45.396Z,4.53
2023-05-14T11:28:47.688Z,4.63
2023-05-14T11:31:51.042Z,4.83
2023-05-14T11:34:53.252Z,5.50
2023-05-14T11:37:55.388Z,5.87
2023-05-14T11:40:58.686Z,4.80
2023-05-14T11:44:00.820Z,5.23
2023-05-14T11:47:04.887Z,5.67
2023-05-14T11:50:09.195Z,5.83
2023-05-14T11:53:11.550Z,5.23
2023-05-14T11:56:13.912Z,5.37
2023-05-14T11:59:18.407Z,5.47
2023-05-14T12:02:20.700Z,5.33
2023-05-14T12:05:22.832Z,4.67
2023-05-14T12:08:31.650Z,5.50
2023-05-14T12:11:39.631Z,4.63
2023-05-14T12:14:42.698Z,4.93
2023-05-14T12:17:50.959Z,5.03
2023-05-14T12:20:53.176Z,4.40
2023-05-14T12:24:01.529Z,4.50
2023-05-14T12:27:03.990Z,4.50
2023-05-14T12:30:20.772Z,3.93
2023-05-14T12:33:23.878Z,4.10
2023-05-14T12:36:51.253Z,3.83
2023-05-14T12:39:53.376Z,3.90
2023-05-14T12:42:56.771Z,3.33
2023-05-14T12:45:59.154Z,2.93
2023-05-14T12:49:01.217Z,2.30
2023-05-14T12:52:19.844Z,2.20
2023-05-14T12:55:25.764Z,1.80
2023-05-14T12:58:27.847Z,2.07
2023-05-14T13:01:30.005Z,1.97
2023-05-14T13:04:32.222Z,2.10
2023-05-14T13:07:34.399Z,2.00
2023-05-14T13:10:36.707Z,1.90
2023-05-14T13:13:38.804Z,1.93
2023-05-14T13:16:41.020Z,2.23
2023-05-14T13:19:43.122Z,2.33
2023-05-14T13:22:45.285Z,2.30
2023-05-14T13:25:49.695Z,2.67
2023-05-14T13:28:52.472Z,2.90
2023-05-14T13:31:54.527Z,2.70
2023-05-14T13:34:56.720Z,2.73
2023-05-14T13:37:58.762Z,3.10
2023-05-14T13:41:03.788Z,2.93
2023-05-14T13:44:05.972Z,3.27
2023-05-14T13:47:08.597Z,3.80
2023-05-14T13:50:10.859Z,3.63
2023-05-14T13:53:12.988Z,2.97
2023-05-14T13:56:15.066Z,3.60
2023-05-14T13:59:17.234Z,3.90
2023-05-14T14:02:19.384Z,4.27
2023-05-14T14:05:21.753Z,4.07
2023-05-14T14:08:24.690Z,3.60
2023-05-14T14:11:27.409Z,3.80
2023-05-14T14:14:32.648Z,3.57
2023-05-14T14:17:34.902Z,3.93
2023-05-14T14:20:37.092Z,4.10
2023-05-14T14:23:39.169Z,4.30
2023-05-14T14:26:41.224Z,4.03
2023-05-14T14:29:43.394Z,4.57
2023-05-14T14:32:51.709Z,4.13
2023-05-14T14:35:53.861Z,4.60
2023-05-14T14:38:55.980Z,4.50
2023-05-14T14:41:58.037Z,4.33
2023-05-14T14:45:00.292Z,4.77
2023-05-14T14:48:30.845Z,4.30
2023-05-14T14:51:33.024Z,4.10
2023-05-14T14:54:35.082Z,4.53
2023-05-14T14:57:37.169Z,4.10
2023-05-14T15:00:40.219Z,4.20
2023-05-14T15:03:42.659Z,4.63
2023-05-14T15:06:44.785Z,4.50
2023-05-14T15:09:46.889Z,4.60
2023-05-14T15:12:49.038Z,4.40
2023-05-14T15:15:52.397Z,4.37
2023-05-14T15:18:54.644Z,3.93
2023-05-14T15:21:56.752Z,4.73
2023-05-14T15:24:58.850Z,4.40
2023-05-14T15:28:01.414Z,4.43
2023-05-14T15:31:03.698Z,4.30
2023-05-14T15:34:05.856Z,4.20
2023-05-14T15:37:07.956Z,4.10
2023-05-14T15:40:10.422Z,4.07
2023-05-14T15:43:12.526Z,4.67
2023-05-14T15:46:14.628Z,4.67
2023-05-14T15:49:16.776Z,11.33
2023-05-14T15:52:18.893Z,8.50
2023-05-14T15:55:21.025Z,4.60
2023-05-14T15:58:23.147Z,4.67
2023-05-14T16:01:25.279Z,4.27
2023-05-14T16:04:27.361Z,4.50
2023-05-14T16:07:29.459Z,4.47
2023-05-14T16:10:31.544Z,6.30
2023-05-14T16:13:33.907Z,7.93
2023-05-14T16:16:36.948Z,4.80
2023-05-14T16:19:39.567Z,4.30
2023-05-14T16:22:41.714Z,4.30
2023-05-14T16:25:43.800Z,4.33
2023-05-14T16:28:45.889Z,3.57
2023-05-14T16:31:48.012Z,3.77
2023-05-14T16:34:50.285Z,4.50
2023-05-14T16:37:52.461Z,5.03
2023-05-14T16:40:54.507Z,4.73
2023-05-14T16:43:56.611Z,5.23
2023-05-14T16:46:58.661Z,4.90
2023-05-14T16:50:00.740Z,4.20
2023-05-14T16:53:02.899Z,4.40
2023-05-14T16:56:07.206Z,4.93
2023-05-14T16:59:09.297Z,4.13
2023-05-14T17:02:11.811Z,3.97
2023-05-14T17:05:13.854Z,3.83
2023-05-14T17:08:16.467Z,4.50
2023-05-14T17:11:18.616Z,4.13
2023-05-14T17:14:20.683Z,3.83
2023-05-14T17:17:22.762Z,4.10
2023-05-14T17:20:24.866Z,3.47
2023-05-14T17:23:32.261Z,2.67
2023-05-14T17:26:34.327Z,2.80
2023-05-14T17:29:36.428Z,3.70
2023-05-14T17:32:38.559Z,3.57
2023-05-14T17:35:40.819Z,3.57
2023-05-14T17:38:42.907Z,4.90
2023-05-14T17:41:45.105Z,4.63
2023-05-14T17:44:47.242Z,4.03
2023-05-14T17:47:51.227Z,3.80
2023-05-14T17:51:03.519Z,5.20
2023-05-14T17:54:05.638Z,5.20
2023-05-14T17:57:07.826Z,5.27
2023-05-14T18:00:10.192Z,4.93
2023-05-14T18:03:14.102Z,4.47
2023-05-14T18:06:16.905Z,3.80
2023-05-14T18:09:18.980Z,3.70
2023-05-14T18:12:21.043Z,5.50
2023-05-14T18:15:25.465Z,4.20
2023-05-14T18:18:27.991Z,3.53
2023-05-14T18:21:49.360Z,4.30
2023-05-14T18:24:51.470Z,4.00
2023-05-14T18:27:53.524Z,5.07
2023-05-14T18:30:55.701Z,4.10
2023-05-14T18:33:57.862Z,5.10
2023-05-14T18:37:00.380Z,5.10
2023-05-14T18:40:04.567Z,5.40
2023-05-14T18:43:06.816Z,3.90
2023-05-14T18:46:09.121Z,3.83
2023-05-14T18:49:11.219Z,4.13
2023-05-14T18:52:13.459Z,6.07
2023-05-14T18:55:15.572Z,4.50
2023-05-14T18:58:17.758Z,3.10
2023-05-14T19:01:21.105Z,3.70
2023-05-14T19:04:23.270Z,3.43
2023-05-14T19:07:25.843Z,3.40
2023-05-14T19:10:28.067Z,3.60
2023-05-14T19:13:30.622Z,4.40
2023-05-14T19:16:32.845Z,4.50
2023-05-14T19:19:35.174Z,4.67
2023-05-14T19:22:37.309Z,4.37
2023-05-14T19:25:39.422Z,4.10
2023-05-14T19:28:41.595Z,3.67
2023-05-14T19:31:43.685Z,4.93
2023-05-14T19:34:45.800Z,6.73
2023-05-14T19:37:47.866Z,7.90
2023-05-14T19:40:51.088Z,8.03
2023-05-14T19:43:53.205Z,5.40
2023-05-14T19:46:55.395Z,6.63
2023-05-14T19:50:17.068Z,10.17
2023-05-14T19:53:19.239Z,4.67
2023-05-14T19:56:21.647Z,4.40
2023-05-14T19:59:24.761Z,4.50
2023-05-14T20:02:27.110Z,3.40
2023-05-14T20:05:29.212Z,3.50
2023-05-14T20:08:31.348Z,8.80
2023-05-14T20:11:34.511Z,4.40
2023-05-14T20:14:36.623Z,3.70
2023-05-14T20:17:39.342Z,4.30
2023-05-14T20:20:42.709Z,4.37
2023-05-14T20:23:44.759Z,3.90
2023-05-14T20:26:46.861Z,4.10
2023-05-14T20:29:51.308Z,4.30
2023-05-14T20:32:53.398Z,3.13
2023-05-14T20:35:55.799Z,4.60
2023-05-14T20:38:57.901Z,3.80
2023-05-14T20:41:59.976Z,3.23
2023-05-14T20:45:02.114Z,3.70
2023-05-14T20:48:09.715Z,3.90
2023-05-14T20:51:11.949Z,5.07
2023-05-14T20:54:14.061Z,3.93
2023-05-14T20:57:16.228Z,4.20
2023-05-14T21:00:18.588Z,3.90
2023-05-14T21:03:20.693Z,4.17
2023-05-14T21:06:22.889Z,4.10
2023-05-14T21:09:25.044Z,3.73
2023-05-14T21:12:27.099Z,5.03
2023-05-14T21:15:30.611Z,4.70
2023-05-14T21:18:32.865Z,3.90
2023-05-14T21:21:35.228Z,3.97
2023-05-14T21:24:37.298Z,4.07
2023-05-14T21:27:40.134Z,3.77
2023-05-14T21:30:42.265Z,4.67
2023-05-14T21:33:44.327Z,4.83
2023-05-14T21:36:46.406Z,4.30
2023-05-14T21:39:48.567Z,5.20
2023-05-14T21:42:50.904Z,7.10
2023-05-14T21:45:53.016Z,7.17
2023-05-14T21:48:55.773Z,6.47
2023-05-14T21:51:57.904Z,7.93
2023-05-14T21:54:59.973Z,10.87
2023-05-14T21:58:02.729Z,6.60
2023-05-14T22:01:04.908Z,5.43
2023-05-14T22:04:07.064Z,6.93
2023-05-14T22:07:09.146Z,5.70
2023-05-14T22:10:15.205Z,7.73
2023-05-14T22:13:17.310Z,6.57
2023-05-14T22:16:19.455Z,6.87
2023-05-14T22:19:22.309Z,6.03
2023-05-14T22:22:24.384Z,6.13
2023-05-14T22:25:26.789Z,6.73
2023-05-14T22:28:29.060Z,5.97
2023-05-14T22:31:31.181Z,5.50
2023-05-14T22:34:33.304Z,6.07
2023-05-14T22:37:35.401Z,6.30
2023-05-14T22:40:37.453Z,5.77
2023-05-14T22:43:39.636Z,5.10
2023-05-14T22:46:41.744Z,4.37
2023-05-14T22:49:43.866Z,4.40
2023-05-14T22:52:45.929Z,4.97
2023-05-14T22:55:48.066Z,4.80
2023-05-14T22:58:50.349Z,4.43
2023-05-14T23:01:52.433Z,4.70
2023-05-14T23:04:54.650Z,4.53
2023-05-14T23:07:56.874Z,5.03
2023-05-14T23:10:58.950Z,5.13
2023-05-14T23:14:01.169Z,4.93
2023-05-14T23:17:03.268Z,4.50
2023-05-14T23:20:10.679Z,4.80
2023-05-14T23:23:12.770Z,4.23
2023-05-14T23:26:14.877Z,4.90
2023-05-14T23:29:16.954Z,5.23
2023-05-14T23:32:18.997Z,4.70
2023-05-14T23:35:21.077Z,4.50
2023-05-14T23:38:23.229Z,4.63
2023-05-14T23:41:25.969Z,5.17
2023-05-14T23:44:28.040Z,4.73
2023-05-14T23:47:30.207Z,5.33
2023-05-14T23:50:32.280Z,5.00
2023-05-14T23:53:34.458Z,5.30
2023-05-14T23:56:36.575Z,5.13
2023-05-14T23:59:40.036Z,5.00
